createdAt,value
2023-10-15T00:00:52.731Z,83.43
2023-10-15T00:03:23.900Z,83.39
2023-10-15T00:05:54.634Z,83.51
2023-10-15T00:08:25.242Z,83.36
2023-10-15T00:10:56.279Z,83.61
2023-10-15T00:13:26.632Z,83.27
2023-10-15T00:15:59.192Z,83.54
2023-10-15T00:18:29.930Z,83.20
2023-10-15T00:21:15.897Z,82.81
2023-10-15T00:23:49.501Z,82.40
2023-10-15T00:26:20.070Z,82.67
2023-10-15T00:28:57.425Z,82.63
2023-10-15T00:31:28.010Z,82.79
2023-10-15T00:33:58.530Z,82.83
2023-10-15T00:36:30.258Z,82.12
2023-10-15T00:39:00.864Z,82.18
2023-10-15T00:41:31.760Z,82.16
2023-10-15T00:44:02.116Z,82.29
2023-10-15T00:46:40.258Z,82.12
2023-10-15T00:49:17.553Z,82.21
2023-10-15T00:51:48.578Z,82.27
2023-10-15T00:54:19.552Z,82.15
2023-10-15T00:56:52.550Z,82.15
2023-10-15T00:59:24.330Z,81.97
2023-10-15T01:02:16.208Z,82.71
2023-10-15T01:04:48.091Z,82.78
2023-10-15T01:07:45.996Z,82.97
2023-10-15T01:10:34.635Z,83.00
2023-10-15T01:13:13.318Z,82.90
2023-10-15T01:15:45.426Z,83.11
2023-10-15T01:18:15.783Z,83.26
2023-10-15T01:20:45.989Z,83.29
2023-10-15T01:23:36.027Z,83.56
2023-10-15T01:26:13.203Z,83.29
2023-10-15T01:28:46.435Z,83.55
2023-10-15T01:31:19.643Z,83.27
2023-10-15T01:33:51.493Z,83.26
2023-10-15T01:36:31.110Z,83.47
2023-10-15T01:39:12.097Z,83.42
2023-10-15T01:41:42.475Z,83.77
2023-10-15T01:44:13.711Z,83.37
2023-10-15T01:46:49.740Z,83.51
2023-10-15T01:49:37.510Z,83.27
2023-10-15T01:52:25.726Z,82.99
2023-10-15T01:54:56.088Z,83.00
2023-10-15T01:57:26.838Z,82.87
2023-10-15T02:00:08.235Z,82.91
2023-10-15T02:02:45.755Z,83.11
2023-10-15T02:05:31.850Z,83.03
2023-10-15T02:08:04.907Z,83.07
2023-10-15T02:10:35.459Z,83.41
2023-10-15T02:13:11.479Z,83.23
2023-10-15T02:15:42.468Z,83.14
2023-10-15T02:18:16.730Z,83.83
2023-10-15T02:21:03.726Z,83.91
2023-10-15T02:23:35.511Z,82.88
2023-10-15T02:26:07.148Z,82.52
2023-10-15T02:28:38.823Z,82.29
2023-10-15T02:31:09.544Z,82.06
2023-10-15T02:33:40.736Z,82.31
2023-10-15T02:36:18.211Z,82.03
2023-10-15T02:38:56.709Z,82.36
2023-10-15T02:41:33.745Z,81.59
2023-10-15T02:44:15.685Z,81.42
2023-10-15T02:46:53.017Z,81.13
2023-10-15T02:49:29.371Z,80.88
2023-10-15T02:52:03.454Z,80.71
2023-10-15T02:54:51.672Z,80.71
2023-10-15T02:57:24.003Z,80.80
2023-10-15T02:59:54.853Z,80.67
2023-10-15T03:02:28.579Z,80.73
2023-10-15T03:05:10.366Z,80.82
2023-10-15T03:07:45.127Z,80.94
2023-10-15T03:10:24.357Z,81.30
2023-10-15T03:12:56.391Z,81.55
2023-10-15T03:15:27.805Z,81.92
2023-10-15T03:18:01.078Z,82.29
2023-10-15T03:20:41.940Z,82.19
2023-10-15T03:23:18.701Z,82.42
2023-10-15T03:26:01.134Z,82.79
2023-10-15T03:28:31.392Z,82.81
2023-10-15T03:31:03.177Z,83.02
2023-10-15T03:33:33.620Z,82.69
2023-10-15T03:36:05.949Z,82.77
2023-10-15T03:38:37.276Z,82.62
2023-10-15T03:41:24.790Z,82.52
2023-10-15T03:43:55.698Z,82.71
2023-10-15T03:46:27.939Z,83.00
2023-10-15T03:48:58.542Z,82.94
2023-10-15T03:51:31.150Z,82.88
2023-10-15T03:54:09.846Z,82.74
2023-10-15T03:56:40.476Z,82.64
2023-10-15T03:59:11.213Z,82.54
2023-10-15T04:01:46.709Z,82.57
2023-10-15T04:04:21.959Z,82.60
2023-10-15T04:06:56.947Z,82.74
2023-10-15T04:09:28.300Z,82.64
2023-10-15T04:11:58.755Z,82.79
2023-10-15T04:14:32.638Z,82.79
2023-10-15T04:17:03.355Z,82.87
2023-10-15T04:19:35.731Z,82.90
2023-10-15T04:22:16.324Z,83.03
2023-10-15T04:24:52.645Z,83.10
2023-10-15T04:27:27.599Z,83.21
2023-10-15T04:29:58.344Z,83.19
2023-10-15T04:32:31.391Z,83.22
2023-10-15T04:35:08.877Z,83.34
2023-10-15T04:37:40.297Z,83.42
2023-10-15T04:40:19.584Z,83.52
2023-10-15T04:42:53.568Z,83.71
2023-10-15T04:45:27.349Z,83.87
2023-10-15T04:48:15.997Z,83.96
2023-10-15T04:50:47.346Z,83.93
2023-10-15T04:53:23.599Z,83.92
2023-10-15T04:55:55.596Z,84.05
2023-10-15T04:58:35.066Z,83.92
2023-10-15T05:01:07.623Z,83.92
2023-10-15T05:03:43.473Z,83.82
2023-10-15T05:06:16.132Z,83.75
2023-10-15T05:08:50.110Z,83.66
2023-10-15T05:11:24.598Z,83.60
2023-10-15T05:13:55.616Z,83.70
2023-10-15T05:16:27.663Z,83.76
2023-10-15T05:19:02.179Z,83.79
2023-10-15T05:21:32.661Z,83.82
2023-10-15T05:24:05.809Z,83.90
2023-10-15T05:26:37.057Z,83.96
2023-10-15T05:29:07.530Z,83.83
2023-10-15T05:31:38.200Z,83.79
2023-10-15T05:34:10.641Z,83.65
2023-10-15T05:36:41.908Z,83.74
2023-10-15T05:39:14.160Z,83.75
2023-10-15T05:41:45.918Z,83.77
2023-10-15T05:44:16.371Z,83.75
2023-10-15T05:46:49.007Z,83.76
2023-10-15T05:49:19.180Z,83.71
2023-10-15T05:51:49.284Z,83.58
2023-10-15T05:54:20.247Z,83.57
2023-10-15T05:56:50.540Z,83.25
2023-10-15T05:59:22.322Z,83.17
2023-10-15T06:01:52.772Z,83.17
2023-10-15T06:04:23.843Z,83.23
2023-10-15T06:06:55.645Z,83.27
2023-10-15T06:09:27.752Z,83.52
2023-10-15T06:11:58.771Z,83.67
2023-10-15T06:14:32.042Z,84.08
2023-10-15T06:17:02.848Z,84.06
2023-10-15T06:19:33.411Z,84.13
2023-10-15T06:22:04.369Z,84.03
2023-10-15T06:24:36.133Z,84.15
2023-10-15T06:27:07.801Z,84.20
2023-10-15T06:29:38.501Z,84.34
2023-10-15T06:32:09.097Z,84.23
2023-10-15T06:34:42.458Z,84.15
2023-10-15T06:37:13.882Z,84.10
2023-10-15T06:39:44.165Z,84.00
2023-10-15T06:42:14.289Z,83.94
2023-10-15T06:44:46.468Z,83.95
2023-10-15T06:47:16.799Z,83.71
2023-10-15T06:49:47.862Z,83.63
2023-10-15T06:52:21.166Z,83.49
2023-10-15T06:54:51.700Z,83.36
2023-10-15T06:57:21.791Z,83.32
2023-10-15T06:59:57.601Z,83.18
2023-10-15T07:02:31.237Z,83.17
2023-10-15T07:05:04.219Z,83.29
2023-10-15T07:07:38.415Z,83.34
2023-10-15T07:10:09.597Z,83.47
2023-10-15T07:12:40.807Z,83.62
2023-10-15T07:15:12.678Z,83.86
2023-10-15T07:17:44.163Z,84.08
2023-10-15T07:20:23.627Z,84.26
2023-10-15T07:22:54.282Z,84.38
2023-10-15T07:25:27.214Z,84.50
2023-10-15T07:28:02.483Z,84.60
2023-10-15T07:30:33.549Z,84.55
2023-10-15T07:33:04.192Z,84.56
2023-10-15T07:35:34.117Z,84.54
2023-10-15T07:38:07.875Z,84.76
2023-10-15T07:40:38.895Z,84.83
2023-10-15T07:43:12.026Z,84.94
2023-10-15T07:45:42.927Z,84.97
2023-10-15T07:48:13.861Z,85.00
2023-10-15T07:50:46.082Z,84.96
2023-10-15T07:53:16.528Z,84.93
2023-10-15T07:55:47.088Z,84.95
2023-10-15T07:58:18.783Z,84.90
2023-10-15T08:01:01.313Z,84.88
2023-10-15T08:03:40.879Z,84.86
2023-10-15T08:06:13.153Z,84.92
2023-10-15T08:08:46.027Z,84.87
2023-10-15T08:11:16.145Z,84.86
2023-10-15T08:13:46.380Z,84.86
2023-10-15T08:16:18.244Z,84.86
2023-10-15T08:18:49.392Z,84.84
2023-10-15T08:21:21.132Z,84.84
2023-10-15T08:23:52.634Z,84.86
2023-10-15T08:26:23.098Z,84.86
2023-10-15T08:28:53.813Z,84.92
2023-10-15T08:31:25.335Z,84.89
2023-10-15T08:33:55.652Z,84.94
2023-10-15T08:36:26.243Z,84.98
2023-10-15T08:38:56.676Z,85.05
2023-10-15T08:41:31.495Z,85.02
2023-10-15T08:44:01.968Z,84.98
2023-10-15T08:46:34.762Z,85.01
2023-10-15T08:49:15.093Z,84.99
2023-10-15T08:51:46.178Z,84.99
2023-10-15T08:54:17.865Z,84.88
2023-10-15T08:56:49.463Z,84.87
2023-10-15T08:59:21.594Z,84.73
2023-10-15T09:01:57.560Z,84.75
2023-10-15T09:04:29.880Z,84.51
2023-10-15T09:07:04.693Z,84.36
2023-10-15T09:09:35.960Z,84.18
2023-10-15T09:12:09.787Z,84.10
2023-10-15T09:14:47.875Z,83.95
2023-10-15T09:17:19.821Z,83.86
2023-10-15T09:19:50.424Z,83.69
2023-10-15T09:22:20.709Z,83.52
2023-10-15T09:24:52.390Z,83.16
2023-10-15T09:27:23.290Z,83.06
2023-10-15T09:30:23.171Z,83.09
2023-10-15T09:32:54.969Z,82.85
2023-10-15T09:35:27.041Z,82.64
2023-10-15T09:38:00.529Z,82.50
2023-10-15T09:40:33.375Z,82.25
2023-10-15T09:43:03.643Z,82.03
2023-10-15T09:45:34.606Z,81.80
2023-10-15T09:48:06.541Z,81.71
2023-10-15T09:50:40.809Z,81.67
2023-10-15T09:53:15.834Z,81.53
2023-10-15T09:55:49.419Z,81.53
2023-10-15T09:58:20.444Z,81.35
2023-10-15T10:00:59.055Z,81.23
2023-10-15T10:04:07.992Z,81.22
2023-10-15T10:06:56.750Z,80.87
2023-10-15T10:10:04.468Z,80.94
2023-10-15T10:13:12.908Z,80.80
2023-10-15T10:15:50.179Z,80.65
2023-10-15T10:18:25.038Z,80.90
2023-10-15T10:20:57.940Z,80.71
2023-10-15T10:23:38.709Z,80.79
2023-10-15T10:26:17.437Z,80.91
2023-10-15T10:28:50.758Z,81.22
2023-10-15T10:31:21.638Z,81.12
2023-10-15T10:33:52.862Z,81.22
2023-10-15T10:36:33.222Z,81.23
2023-10-15T10:39:18.003Z,81.27
2023-10-15T10:41:53.622Z,81.37
2023-10-15T10:44:27.901Z,81.17
2023-10-15T10:47:21.813Z,81.47
2023-10-15T10:50:01.477Z,81.28
2023-10-15T10:52:36.405Z,80.94
2023-10-15T10:55:35.293Z,80.85
2023-10-15T10:58:26.855Z,80.48
2023-10-15T11:00:58.271Z,79.09
2023-10-15T11:03:31.061Z,79.07
2023-10-15T11:06:03.344Z,79.02
2023-10-15T11:08:33.540Z,79.50
2023-10-15T11:11:03.758Z,79.32
2023-10-15T11:13:35.158Z,77.75
2023-10-15T11:16:07.260Z,76.25
2023-10-15T11:18:39.454Z,75.57
2023-10-15T11:21:11.862Z,75.53
2023-10-15T11:23:43.056Z,74.88
2023-10-15T11:26:14.274Z,74.96
2023-10-15T11:28:44.387Z,74.37
2023-10-15T11:31:15.196Z,74.42
2023-10-15T11:33:48.906Z,74.51
2023-10-15T11:36:19.741Z,74.20
2023-10-15T11:38:50.806Z,73.48
2023-10-15T11:41:21.421Z,74.22
2023-10-15T11:43:53.152Z,73.77
2023-10-15T11:46:26.778Z,73.63
2023-10-15T11:48:57.092Z,73.00
2023-10-15T11:51:28.571Z,73.75
2023-10-15T11:54:01.719Z,73.85
2023-10-15T11:56:34.973Z,72.45
2023-10-15T11:59:07.471Z,73.47
2023-10-15T12:01:38.229Z,72.85
2023-10-15T12:04:11.295Z,73.23
2023-10-15T12:06:41.623Z,72.56
2023-10-15T12:09:16.328Z,72.02
2023-10-15T12:11:50.069Z,72.94
2023-10-15T12:14:20.385Z,72.79
2023-10-15T12:16:50.806Z,72.49
2023-10-15T12:19:22.057Z,73.25
2023-10-15T12:21:53.485Z,73.38
2023-10-15T12:24:42.734Z,73.14
2023-10-15T12:27:13.146Z,73.70
2023-10-15T12:29:43.442Z,73.80
2023-10-15T12:32:16.159Z,73.93
2023-10-15T12:34:46.959Z,73.46
2023-10-15T12:37:17.085Z,73.65
2023-10-15T12:39:47.766Z,74.20
2023-10-15T12:42:20.024Z,73.89
2023-10-15T12:44:50.680Z,73.79
2023-10-15T12:47:21.658Z,74.43
2023-10-15T12:49:52.220Z,74.47
2023-10-15T12:52:22.548Z,74.58
2023-10-15T12:54:53.519Z,73.80
2023-10-15T12:57:25.250Z,74.66
2023-10-15T12:59:56.238Z,74.40
2023-10-15T13:02:27.288Z,75.01
2023-10-15T13:04:58.312Z,74.71
2023-10-15T13:07:28.937Z,74.83
2023-10-15T13:10:00.573Z,74.65
2023-10-15T13:12:31.505Z,74.95
2023-10-15T13:15:01.313Z,75.49
2023-10-15T13:17:31.677Z,75.10
2023-10-15T13:20:04.754Z,74.93
2023-10-15T13:22:38.632Z,75.58
2023-10-15T13:25:12.898Z,75.01
2023-10-15T13:27:46.923Z,74.78
2023-10-15T13:30:20.709Z,75.32
2023-10-15T13:32:51.261Z,75.31
2023-10-15T13:35:22.662Z,75.09
2023-10-15T13:37:54.061Z,75.41
2023-10-15T13:40:26.089Z,75.46
2023-10-15T13:42:57.704Z,75.68
2023-10-15T13:45:27.785Z,75.19
2023-10-15T13:47:57.969Z,75.90
2023-10-15T13:50:28.913Z,75.57
2023-10-15T13:52:59.383Z,75.80
2023-10-15T13:55:29.746Z,76.36
2023-10-15T13:58:01.863Z,75.59
2023-10-15T14:00:34.899Z,75.33
2023-10-15T14:03:08.347Z,75.51
2023-10-15T14:05:42.790Z,75.53
2023-10-15T14:08:13.787Z,75.95
2023-10-15T14:10:44.354Z,75.57
2023-10-15T14:13:19.917Z,76.14
2023-10-15T14:15:52.474Z,75.34
2023-10-15T14:18:22.825Z,75.59
2023-10-15T14:20:53.055Z,75.79
2023-10-15T14:23:23.985Z,75.13
2023-10-15T14:25:54.309Z,75.26
2023-10-15T14:28:25.194Z,75.28
2023-10-15T14:30:56.804Z,75.48
2023-10-15T14:33:27.089Z,75.00
2023-10-15T14:35:57.604Z,74.67
2023-10-15T14:38:32.381Z,74.64
2023-10-15T14:41:03.296Z,74.88
2023-10-15T14:43:33.877Z,74.99
2023-10-15T14:46:05.449Z,75.04
2023-10-15T14:48:36.094Z,74.89
2023-10-15T14:51:08.432Z,75.46
2023-10-15T14:53:38.717Z,75.04
2023-10-15T14:56:10.936Z,74.95
2023-10-15T14:58:41.880Z,75.16
2023-10-15T15:01:12.847Z,74.87
2023-10-15T15:03:43.702Z,74.62
2023-10-15T15:06:15.242Z,74.68
2023-10-15T15:08:46.253Z,75.14
2023-10-15T15:11:17.793Z,75.08
2023-10-15T15:13:48.288Z,74.93
2023-10-15T15:16:20.065Z,74.99
2023-10-15T15:18:50.248Z,74.87
2023-10-15T15:21:20.380Z,75.58
2023-10-15T15:23:51.196Z,74.90
2023-10-15T15:26:22.360Z,74.80
2023-10-15T15:28:53.134Z,75.00
2023-10-15T15:31:24.404Z,74.71
2023-10-15T15:33:54.757Z,74.58
2023-10-15T15:36:25.647Z,74.96
2023-10-15T15:38:57.661Z,74.86
2023-10-15T15:41:35.604Z,75.42
2023-10-15T15:44:07.400Z,74.71
2023-10-15T15:46:39.114Z,75.63
2023-10-15T15:49:10.858Z,75.46
2023-10-15T15:51:41.868Z,74.92
2023-10-15T15:54:13.073Z,75.24
2023-10-15T15:56:44.553Z,75.47
2023-10-15T15:59:14.955Z,75.05
2023-10-15T16:01:46.227Z,75.07
2023-10-15T16:04:16.847Z,74.78
2023-10-15T16:06:47.495Z,74.99
2023-10-15T16:09:17.605Z,75.03
2023-10-15T16:11:48.216Z,75.40
2023-10-15T16:14:18.649Z,75.92
2023-10-15T16:16:49.659Z,75.92
2023-10-15T16:19:21.293Z,75.99
2023-10-15T16:21:53.082Z,75.66
2023-10-15T16:24:24.051Z,75.43
2023-10-15T16:26:54.371Z,75.62
2023-10-15T16:29:25.066Z,75.08
2023-10-15T16:31:56.208Z,75.29
2023-10-15T16:34:29.461Z,75.54
2023-10-15T16:37:02.533Z,75.97
2023-10-15T16:39:32.933Z,75.51
2023-10-15T16:42:03.011Z,76.00
2023-10-15T16:44:34.544Z,75.91
2023-10-15T16:47:05.056Z,75.78
2023-10-15T16:49:35.820Z,76.35
2023-10-15T16:52:07.125Z,76.04
2023-10-15T16:54:37.588Z,75.89
2023-10-15T16:57:07.739Z,75.50
2023-10-15T16:59:37.839Z,76.35
2023-10-15T17:02:08.918Z,76.16
2023-10-15T17:04:39.544Z,76.54
2023-10-15T17:07:10.524Z,75.58
2023-10-15T17:09:42.805Z,76.98
2023-10-15T17:12:13.203Z,77.59
2023-10-15T17:14:43.309Z,77.96
2023-10-15T17:17:14.178Z,77.76
2023-10-15T17:19:44.949Z,78.19
2023-10-15T17:22:17.261Z,78.07
2023-10-15T17:24:48.280Z,77.86
2023-10-15T17:27:19.151Z,78.08
2023-10-15T17:30:08.267Z,78.46
2023-10-15T17:32:42.193Z,78.61
2023-10-15T17:35:13.961Z,78.67
2023-10-15T17:37:44.481Z,78.53
2023-10-15T17:40:14.677Z,78.49
2023-10-15T17:42:45.092Z,78.58
2023-10-15T17:45:16.483Z,78.30
2023-10-15T17:47:47.294Z,78.12
2023-10-15T17:50:17.508Z,78.23
2023-10-15T17:52:49.251Z,78.22
2023-10-15T17:55:19.956Z,78.86
2023-10-15T17:57:50.930Z,78.78
2023-10-15T18:00:22.079Z,79.19
2023-10-15T18:02:53.419Z,79.02
2023-10-15T18:05:23.746Z,78.97
2023-10-15T18:07:54.123Z,79.39
2023-10-15T18:10:24.754Z,79.67
2023-10-15T18:12:55.055Z,79.96
2023-10-15T18:15:31.410Z,80.05
2023-10-15T18:18:03.287Z,80.20
2023-10-15T18:20:33.843Z,80.26
2023-10-15T18:23:04.525Z,80.15
2023-10-15T18:25:34.851Z,80.47
2023-10-15T18:28:06.914Z,80.45
2023-10-15T18:30:39.507Z,79.80
2023-10-15T18:33:09.834Z,80.45
2023-10-15T18:35:40.622Z,80.57
2023-10-15T18:38:10.826Z,80.46
2023-10-15T18:40:42.892Z,80.89
2023-10-15T18:43:13.772Z,80.74
2023-10-15T18:45:45.117Z,80.77
2023-10-15T18:48:16.429Z,80.84
2023-10-15T18:50:47.587Z,81.18
2023-10-15T18:53:18.338Z,81.01
2023-10-15T18:55:48.925Z,81.28
2023-10-15T18:58:20.074Z,81.26
2023-10-15T19:00:51.638Z,81.33
2023-10-15T19:03:22.227Z,81.80
2023-10-15T19:05:53.163Z,82.08
2023-10-15T19:08:23.682Z,82.05
2023-10-15T19:10:54.141Z,82.14
2023-10-15T19:13:24.464Z,82.01
2023-10-15T19:16:05.048Z,82.16
2023-10-15T19:18:35.633Z,82.24
2023-10-15T19:21:08.725Z,82.12
2023-10-15T19:23:40.579Z,82.03
2023-10-15T19:26:12.868Z,82.20
2023-10-15T19:28:44.147Z,82.04
2023-10-15T19:31:15.588Z,82.11
2023-10-15T19:33:46.662Z,82.10
2023-10-15T19:36:16.969Z,81.71
2023-10-15T19:38:47.502Z,81.92
2023-10-15T19:41:18.983Z,82.21
2023-10-15T19:43:50.435Z,82.12
2023-10-15T19:46:21.951Z,82.39
2023-10-15T19:48:52.478Z,82.48
2023-10-15T19:51:22.759Z,82.41
2023-10-15T19:53:54.565Z,82.65
2023-10-15T19:56:25.935Z,82.55
2023-10-15T19:58:57.501Z,82.61
2023-10-15T20:01:29.038Z,82.59
2023-10-15T20:04:07.494Z,82.85
2023-10-15T20:06:38.723Z,82.85
2023-10-15T20:09:20.934Z,83.26
2023-10-15T20:11:52.784Z,83.00
2023-10-15T20:14:24.798Z,83.31
2023-10-15T20:16:56.845Z,83.30
2023-10-15T20:19:27.450Z,83.20
2023-10-15T20:21:57.970Z,83.27
2023-10-15T20:24:28.558Z,83.17
2023-10-15T20:27:00.114Z,83.38
2023-10-15T20:29:32.007Z,83.41
2023-10-15T20:32:03.501Z,83.26
2023-10-15T20:34:34.238Z,83.47
2023-10-15T20:37:04.478Z,83.47
2023-10-15T20:39:34.816Z,83.51
2023-10-15T20:42:05.904Z,83.53
2023-10-15T20:44:36.338Z,83.49
2023-10-15T20:47:07.153Z,83.71
2023-10-15T20:49:38.670Z,83.84
2023-10-15T20:52:09.797Z,83.89
2023-10-15T20:54:40.395Z,83.88
2023-10-15T20:57:11.806Z,84.16
2023-10-15T20:59:42.962Z,84.34
2023-10-15T21:02:13.492Z,84.47
2023-10-15T21:04:43.656Z,84.37
2023-10-15T21:07:14.477Z,84.31
2023-10-15T21:09:46.171Z,84.49
2023-10-15T21:12:17.266Z,84.47
2023-10-15T21:14:47.778Z,84.66
2023-10-15T21:17:19.342Z,84.73
2023-10-15T21:19:50.450Z,84.71
2023-10-15T21:22:20.645Z,84.79
2023-10-15T21:24:52.810Z,85.02
2023-10-15T21:27:24.462Z,84.93
2023-10-15T21:29:55.522Z,85.02
2023-10-15T21:32:26.251Z,85.01
2023-10-15T21:34:56.744Z,85.14
2023-10-15T21:37:27.533Z,85.17
2023-10-15T21:39:59.001Z,85.24
2023-10-15T21:42:29.937Z,85.26
2023-10-15T21:45:00.073Z,85.19
2023-10-15T21:47:30.925Z,85.16
2023-10-15T21:50:01.886Z,85.23
2023-10-15T21:52:32.721Z,85.11
2023-10-15T21:55:02.877Z,85.21
2023-10-15T21:57:33.430Z,85.23
2023-10-15T22:00:05.123Z,85.31
2023-10-15T22:02:42.104Z,85.27
2023-10-15T22:05:13.138Z,85.34
2023-10-15T22:07:43.606Z,85.30
2023-10-15T22:10:15.212Z,85.29
2023-10-15T22:12:47.115Z,85.21
2023-10-15T22:15:17.923Z,85.20
2023-10-15T22:17:49.822Z,85.15
2023-10-15T22:20:23.362Z,85.16
2023-10-15T22:22:57.676Z,85.16
2023-10-15T22:25:29.288Z,85.25
2023-10-15T22:28:06.023Z,85.23
2023-10-15T22:30:40.317Z,85.27
2023-10-15T22:33:10.932Z,85.50
2023-10-15T22:35:47.410Z,85.46
2023-10-15T22:38:22.127Z,85.42
2023-10-15T22:40:54.193Z,85.56
2023-10-15T22:43:25.717Z,85.61
2023-10-15T22:45:55.900Z,85.58
2023-10-15T22:48:28.724Z,85.67
2023-10-15T22:50:59.141Z,85.54
2023-10-15T22:53:29.364Z,85.25
2023-10-15T22:56:02.935Z,85.40
2023-10-15T22:58:34.076Z,85.52
2023-10-15T23:01:06.163Z,85.39
2023-10-15T23:03:37.389Z,85.49
2023-10-15T23:06:08.231Z,85.58
2023-10-15T23:08:38.626Z,85.75
2023-10-15T23:11:09.968Z,85.58
2023-10-15T23:13:41.356Z,85.92
2023-10-15T23:16:17.635Z,85.94
2023-10-15T23:18:48.130Z,86.05
2023-10-15T23:21:20.145Z,85.97
2023-10-15T23:23:50.732Z,86.04
2023-10-15T23:26:21.001Z,86.11
2023-10-15T23:28:51.128Z,86.22
2023-10-15T23:31:23.472Z,86.36
2023-10-15T23:33:55.269Z,86.39
2023-10-15T23:36:27.735Z,86.36
2023-10-15T23:38:57.739Z,86.34
2023-10-15T23:41:31.729Z,86.48
2023-10-15T23:44:02.094Z,86.52
2023-10-15T23:46:33.847Z,86.47
2023-10-15T23:49:04.188Z,86.67
2023-10-15T23:51:37.115Z,86.69
2023-10-15T23:54:14.555Z,86.78
2023-10-15T23:56:44.984Z,86.74
2023-10-15T23:59:18.309Z,86.83
